createdAt,value
2022-08-10T00:00:00.142Z,7.2
2022-08-10T00:05:00.128Z,7.2
2022-08-10T00:10:00.148Z,7.3
2022-08-10T00:15:00.116Z,7.3
2022-08-10T00:20:02.777Z,5.9
2022-08-10T00:25:00.119Z,5.9
2022-08-10T00:30:00.143Z,6.9
2022-08-10T00:35:00.132Z,6.9
2022-08-10T00:40:00.270Z,6.7
2022-08-10T00:45:00.116Z,6.7
2022-08-10T00:50:00.192Z,6.4
2022-08-10T00:55:00.132Z,6.4
2022-08-10T01:00:00.625Z,5.7
2022-08-10T01:05:01.852Z,5.7
2022-08-10T01:10:00.145Z,6.6
2022-08-10T01:15:00.114Z,6.6
2022-08-10T01:20:00.146Z,6.4
2022-08-10T01:25:00.123Z,6.4
2022-08-10T01:30:00.117Z,8.7
2022-08-10T01:35:00.144Z,8.7
2022-08-10T01:40:00.169Z,7.1
2022-08-10T01:45:00.118Z,7.1
2022-08-10T01:50:00.130Z,6.9
2022-08-10T01:55:00.112Z,6.9
2022-08-10T02:00:02.018Z,6.1
2022-08-10T02:05:00.115Z,6.1
2022-08-10T02:10:00.167Z,5.6
2022-08-10T02:15:00.115Z,5.6
2022-08-10T02:20:00.153Z,6.5
2022-08-10T02:25:00.255Z,6.5
2022-08-10T02:30:00.202Z,6.5
2022-08-10T02:35:00.230Z,6.5
2022-08-10T02:40:00.246Z,8.2
2022-08-10T02:45:16.822Z,8.2
2022-08-10T02:50:00.345Z,8.4
2022-08-10T02:55:05.998Z,8.4
2022-08-10T03:00:00.250Z,5.5
2022-08-10T03:05:00.125Z,5.5
2022-08-10T03:10:00.166Z,6.4
2022-08-10T03:15:00.110Z,6.4
2022-08-10T03:20:04.546Z,7.9
2022-08-10T03:25:00.442Z,7.9
2022-08-10T03:30:23.663Z,10.1
2022-08-10T03:35:00.207Z,10.1
2022-08-10T03:40:00.169Z,6.8
2022-08-10T03:45:00.124Z,6.8
2022-08-10T03:50:03.433Z,5.4
2022-08-10T03:55:00.121Z,5.4
2022-08-10T04:00:00.127Z,6.6
2022-08-10T04:05:00.163Z,6.6
2022-08-10T04:10:00.142Z,6.9
2022-08-10T04:15:00.120Z,6.9
2022-08-10T04:20:00.163Z,6.3
2022-08-10T04:25:00.117Z,6.3
2022-08-10T04:30:00.175Z,6.4
2022-08-10T04:35:00.199Z,6.4
2022-08-10T04:40:00.124Z,5.4
2022-08-10T04:45:00.119Z,5.4
2022-08-10T04:50:00.154Z,7.4
2022-08-10T04:55:00.111Z,7.4
2022-08-10T05:00:00.137Z,6.8
2022-08-10T05:05:00.194Z,6.8
2022-08-10T05:10:00.681Z,9.2
2022-08-10T05:15:00.133Z,9.2
2022-08-10T05:20:02.441Z,6.3
2022-08-10T05:25:00.177Z,6.3
2022-08-10T05:30:01.876Z,7.1
2022-08-10T05:35:00.144Z,7.1
2022-08-10T05:40:00.273Z,9.5
2022-08-10T05:45:00.143Z,9.5
2022-08-10T05:50:00.139Z,8
2022-08-10T05:55:02.829Z,8
2022-08-10T06:00:09.252Z,6.3
2022-08-10T06:05:00.113Z,6.3
2022-08-10T06:10:00.490Z,5
2022-08-10T06:15:00.251Z,5
2022-08-10T06:20:00.183Z,6.7
2022-08-10T06:25:27.222Z,6.7
2022-08-10T06:30:00.120Z,9.8
2022-08-10T06:35:00.154Z,9.8
2022-08-10T06:40:00.397Z,7.4
2022-08-10T06:45:00.117Z,7.4
2022-08-10T06:50:01.441Z,6.5
2022-08-10T06:55:00.458Z,6.5
2022-08-10T07:00:00.138Z,7.9
2022-08-10T07:05:00.124Z,7.9
2022-08-10T07:10:00.200Z,6.2
2022-08-10T07:15:00.120Z,6.2
2022-08-10T07:20:00.122Z,6.6
2022-08-10T07:25:00.141Z,6.6
2022-08-10T07:30:00.160Z,4.9
2022-08-10T07:35:00.135Z,4.9
2022-08-10T07:40:03.089Z,6.9
2022-08-10T07:45:00.116Z,6.9
2022-08-10T07:50:00.115Z,7.1
2022-08-10T07:55:00.125Z,7.1
2022-08-10T08:00:00.147Z,7.2
2022-08-10T08:05:00.103Z,7.2
2022-08-10T08:10:00.880Z,6.1
2022-08-10T08:15:00.104Z,6.1
2022-08-10T08:20:00.110Z,8.8
2022-08-10T08:25:00.120Z,8.8
2022-08-10T08:30:00.131Z,4.9
2022-08-10T08:35:00.140Z,4.9
2022-08-10T08:40:00.159Z,6.3
2022-08-10T08:45:00.147Z,6.3
2022-08-10T08:50:07.652Z,5.2
2022-08-10T08:55:00.131Z,5.2
2022-08-10T09:00:00.152Z,7.2
2022-08-10T09:05:00.107Z,7.2
2022-08-10T09:10:00.180Z,5.1
2022-08-10T09:15:00.109Z,5.1
2022-08-10T09:20:00.157Z,5.4
2022-08-10T09:25:00.136Z,5.4
2022-08-10T09:30:00.151Z,5.1
2022-08-10T09:36:18.202Z,5.1
2022-08-10T09:40:06.295Z,4.6
2022-08-10T09:45:00.138Z,4.6
2022-08-10T09:50:04.320Z,5.5
2022-08-10T09:55:00.130Z,5.5
2022-08-10T10:00:02.457Z,6.2
2022-08-10T10:05:00.125Z,6.2
2022-08-10T10:10:00.140Z,4.5
2022-08-10T10:15:00.105Z,4.5
2022-08-10T10:20:00.174Z,4.7
2022-08-10T10:25:00.145Z,4.7
2022-08-10T10:30:00.145Z,4.7
2022-08-10T10:35:00.124Z,4.7
2022-08-10T10:40:00.231Z,6.1
2022-08-10T10:45:00.109Z,6.1
2022-08-10T10:50:00.144Z,4.4
2022-08-10T10:55:00.125Z,4.4
2022-08-10T11:00:00.135Z,4.8
2022-08-10T11:05:00.109Z,4.8
2022-08-10T11:10:04.414Z,6
2022-08-10T11:15:00.115Z,6
2022-08-10T11:20:03.126Z,9.1
2022-08-10T11:25:00.126Z,9.1
2022-08-10T11:30:00.185Z,4.7
2022-08-10T11:35:10.125Z,4.7
2022-08-10T11:40:00.222Z,4.4
2022-08-10T11:45:00.110Z,4.4
2022-08-10T11:50:00.159Z,5.4
2022-08-10T11:55:00.135Z,5.4
2022-08-10T12:00:00.154Z,4.3
2022-08-10T12:05:00.130Z,4.3
2022-08-10T12:10:08.210Z,4.2
2022-08-10T12:15:00.119Z,4.2
2022-08-10T12:20:02.885Z,4.7
2022-08-10T12:25:00.121Z,4.7
2022-08-10T12:30:00.165Z,4.1
2022-08-10T12:35:00.115Z,4.1
2022-08-10T12:40:24.195Z,7.5
2022-08-10T12:45:00.108Z,7.5
2022-08-10T12:50:13.967Z,5.2
2022-08-10T12:55:00.131Z,5.2
2022-08-10T13:00:00.147Z,4.9
2022-08-10T13:05:00.116Z,4.9
2022-08-10T13:10:00.149Z,5.9
2022-08-10T13:15:00.123Z,5.9
2022-08-10T13:20:05.683Z,4.9
2022-08-10T13:25:00.126Z,4.9
2022-08-10T13:30:02.133Z,4.5
2022-08-10T13:35:00.133Z,4.5
2022-08-10T13:40:00.848Z,5.4
2022-08-10T13:45:00.134Z,5.4
2022-08-10T13:50:00.160Z,6.1
2022-08-10T13:55:00.128Z,6.1
2022-08-10T14:00:33.210Z,3.5
2022-08-10T14:05:00.123Z,3.5
2022-08-10T14:10:00.735Z,4.2
2022-08-10T14:15:00.124Z,4.2
2022-08-10T14:20:00.260Z,4.2
2022-08-10T14:25:00.135Z,4.2
2022-08-10T14:30:00.175Z,5
2022-08-10T14:36:17.171Z,5
2022-08-10T14:40:00.272Z,5.1
2022-08-10T14:45:00.154Z,5.1
2022-08-10T14:50:00.274Z,5.9
2022-08-10T14:55:00.137Z,5.9
2022-08-10T15:00:20.841Z,5.5
2022-08-10T15:05:00.133Z,5.5
2022-08-10T15:10:02.356Z,3.8
2022-08-10T15:15:00.517Z,3.8
2022-08-10T15:20:01.867Z,4.6
2022-08-10T15:25:00.136Z,4.6
2022-08-10T15:30:00.230Z,6.8
2022-08-10T15:35:00.129Z,6.8
2022-08-10T15:40:20.860Z,6.9
2022-08-10T15:45:00.128Z,6.9
2022-08-10T15:50:00.160Z,4.5
2022-08-10T15:55:00.142Z,4.5
2022-08-10T16:00:00.147Z,4.4
2022-08-10T16:05:00.140Z,4.4
2022-08-10T16:10:11.742Z,4.7
2022-08-10T16:15:00.141Z,4.7
2022-08-10T16:20:00.251Z,7.5
2022-08-10T16:25:00.131Z,7.5
2022-08-10T16:30:00.189Z,5.2
2022-08-10T16:35:00.121Z,5.2
2022-08-10T16:40:01.205Z,6.7
2022-08-10T16:45:00.128Z,6.7
2022-08-10T16:50:00.145Z,5.8
2022-08-10T16:55:00.122Z,5.8
2022-08-10T17:00:00.196Z,6.6
2022-08-10T17:05:00.105Z,6.6
2022-08-10T17:10:00.118Z,5
2022-08-10T17:15:09.296Z,5
2022-08-10T17:20:29.874Z,4.5
2022-08-10T17:25:00.118Z,4.5
2022-08-10T17:30:04.154Z,4.4
2022-08-10T17:35:00.140Z,4.4
2022-08-10T17:40:00.181Z,7.3
2022-08-10T17:45:00.117Z,7.3
2022-08-10T17:50:00.152Z,3.7
2022-08-10T17:55:00.129Z,3.7
2022-08-10T18:00:00.209Z,4.8
2022-08-10T18:05:00.137Z,4.8
2022-08-10T18:10:00.164Z,6.7
2022-08-10T18:15:00.125Z,6.7
2022-08-10T18:20:00.218Z,6.6
2022-08-10T18:25:00.125Z,6.6
2022-08-10T18:30:00.120Z,5.3
2022-08-10T18:35:00.140Z,5.3
2022-08-10T18:40:00.127Z,4.7
2022-08-10T18:45:00.110Z,4.7
2022-08-10T18:50:00.139Z,9.1
2022-08-10T18:55:00.124Z,9.1
2022-08-10T19:00:04.162Z,5.2
2022-08-10T19:05:00.114Z,5.2
2022-08-10T19:10:00.143Z,6.4
2022-08-10T19:15:00.122Z,6.4
2022-08-10T19:20:00.120Z,6.3
2022-08-10T19:25:00.134Z,6.3
2022-08-10T19:30:08.147Z,6.4
2022-08-10T19:35:00.123Z,6.4
2022-08-10T19:40:00.261Z,6.9
2022-08-10T19:45:00.134Z,6.9
2022-08-10T19:50:00.160Z,6.9
2022-08-10T19:55:00.129Z,6.9
2022-08-10T20:00:06.246Z,5.8
2022-08-10T20:05:00.125Z,5.8
2022-08-10T20:10:00.570Z,6.4
2022-08-10T20:15:00.136Z,6.4
2022-08-10T20:20:00.147Z,5.9
2022-08-10T20:25:00.134Z,5.9
2022-08-10T20:30:00.143Z,7.2
2022-08-10T20:35:00.115Z,7.2
2022-08-10T20:40:00.161Z,5.7
2022-08-10T20:45:00.138Z,5.7
2022-08-10T20:50:00.196Z,7.4
2022-08-10T20:55:00.134Z,7.4
2022-08-10T21:00:02.794Z,10
2022-08-10T21:05:00.120Z,10
2022-08-10T21:10:00.132Z,8.4
2022-08-10T21:15:00.119Z,8.4
2022-08-10T21:20:00.147Z,8.3
2022-08-10T21:25:00.118Z,8.3
2022-08-10T21:30:00.160Z,6.6
2022-08-10T21:35:00.199Z,6.6
2022-08-10T21:40:00.253Z,6.1
2022-08-10T21:45:01.082Z,6.1
2022-08-10T21:50:03.739Z,5.1
2022-08-10T21:55:00.131Z,5.1
2022-08-10T22:00:00.146Z,6.9
2022-08-10T22:05:00.146Z,6.9
2022-08-10T22:10:00.160Z,5.5
2022-08-10T22:15:00.119Z,5.5
2022-08-10T22:20:00.123Z,6.2
2022-08-10T22:25:00.127Z,6.2
2022-08-10T22:30:00.148Z,7
2022-08-10T22:35:00.118Z,7
2022-08-10T22:40:07.566Z,7.8
2022-08-10T22:45:00.120Z,7.8
2022-08-10T22:50:01.183Z,6.7
2022-08-10T22:55:00.113Z,6.7
2022-08-10T23:00:00.147Z,7.1
2022-08-10T23:05:00.100Z,7.1
2022-08-10T23:10:00.139Z,8.1
2022-08-10T23:15:00.227Z,8.1
2022-08-10T23:20:00.167Z,5.6
2022-08-10T23:25:00.102Z,5.6
2022-08-10T23:30:03.602Z,6.1
2022-08-10T23:36:04.713Z,6.1
2022-08-10T23:40:00.236Z,9.4
2022-08-10T23:45:00.126Z,9.4
2022-08-10T23:50:00.172Z,5.8
2022-08-10T23:55:00.113Z,5.8
